Time;durP1;ratioP1;P1;durP2;ratioP2;P2;SDS_P1;SDS_P2;PMS_P1;PMS_P2;Temp;Humidity;BMP_temperature;BMP_pressure;BME280_temperature;BME280_humidity;BME280_pressure;Samples;Min_cycle;Max_cycle;Signal;HPM_P1;HPM_P2
2022/09/27 00:02:20;;;;;;;6.07;5.32;;;;;;;;;;5005733;28;20030;-83
2022/09/27 00:04:45;;;;;;;8.85;6.55;;;;;;;;;;5008965;28;20018;-84
2022/09/27 00:07:10;;;;;;;8.00;6.60;;;;;;;;;;5005561;28;20564;-84
2022/09/27 00:09:36;;;;;;;7.57;5.63;;;;;;;;;;5004929;28;20042;-83
2022/09/27 00:12:01;;;;;;;6.38;5.78;;;;;;;;;;5002881;28;20536;-81
2022/09/27 00:14:26;;;;;;;6.72;6.07;;;;;;;;;;5004698;28;20531;-82
2022/09/27 00:16:52;;;;;;;6.90;5.80;;;;;;;;;;5004156;28;20064;-82
2022/09/27 00:19:18;;;;;;;6.40;5.80;;;;;;;;;;5002385;28;20443;-82
2022/09/27 00:21:44;;;;;;;11.05;6.63;;;;;;;;;;5010211;28;20145;-81
2022/09/27 00:24:11;;;;;;;7.18;5.50;;;;;;;;;;5002222;28;20573;-82
2022/09/27 00:26:36;;;;;;;6.38;5.50;;;;;;;;;;5001789;28;20030;-82
2022/09/27 00:29:04;;;;;;;5.90;5.40;;;;;;;;;;5006311;28;20407;-83
2022/09/27 00:31:29;;;;;;;6.60;5.90;;;;;;;;;;5009656;28;20061;-84
2022/09/27 00:33:56;;;;;;;5.97;5.35;;;;;;;;;;5000464;28;20692;-83
2022/09/27 00:36:22;;;;;;;6.32;5.20;;;;;;;;;;5002642;28;20061;-83
2022/09/27 00:38:48;;;;;;;6.95;6.10;;;;;;;;;;5001011;28;20026;-83
2022/09/27 00:41:15;;;;;;;7.53;6.22;;;;;;;;;;5003213;28;20471;-83
2022/09/27 00:43:48;;;;;;;6.93;5.88;;;;;;;;;;5011564;28;20062;-84
2022/09/27 00:46:17;;;;;;;7.07;5.70;;;;;;;;;;5004205;28;20498;-83
2022/09/27 00:48:42;;;;;;;5.60;5.05;;;;;;;;;;5002142;28;20213;-84
2022/09/27 00:51:08;;;;;;;6.60;5.97;;;;;;;;;;4996736;28;20045;-83
2022/09/27 00:53:48;;;;;;;5.72;5.13;;;;;;;;;;4997454;28;20026;-83
2022/09/27 00:56:19;;;;;;;6.72;5.70;;;;;;;;;;4994227;28;20025;-83
2022/09/27 00:58:47;;;;;;;8.90;6.30;;;;;;;;;;4995933;28;20025;-84
2022/09/27 01:01:15;;;;;;;5.65;5.10;;;;;;;;;;4996985;28;20442;-84
2022/09/27 01:03:53;;;;;;;7.43;5.40;;;;;;;;;;4996369;28;20026;-84
2022/09/27 01:06:20;;;;;;;7.30;5.47;;;;;;;;;;4994626;28;20034;-84
2022/09/27 01:08:45;;;;;;;6.63;6.00;;;;;;;;;;4994101;28;20028;-84
2022/09/27 01:11:29;;;;;;;6.93;5.57;;;;;;;;;;4994633;28;20085;-85
2022/09/27 01:14:16;;;;;;;7.25;5.78;;;;;;;;;;5001331;28;20511;-84
2022/09/27 01:16:45;;;;;;;5.78;5.28;;;;;;;;;;5000895;28;20058;-83
2022/09/27 01:19:16;;;;;;;5.50;5.00;;;;;;;;;;5002569;28;20030;-83
2022/09/27 01:21:50;;;;;;;5.32;4.82;;;;;;;;;;4999815;28;20034;-84
2022/09/27 01:24:28;;;;;;;5.77;4.93;;;;;;;;;;4998169;28;20295;-84
2022/09/27 01:27:12;;;;;;;6.13;5.53;;;;;;;;;;5004810;28;20451;-84
2022/09/27 01:30:01;;;;;;;6.18;5.13;;;;;;;;;;4996523;28;20500;-84
2022/09/27 01:32:40;;;;;;;6.22;5.63;;;;;;;;;;4998255;28;20117;-84
2022/09/27 01:35:09;;;;;;;5.75;5.13;;;;;;;;;;5010334;28;20112;-84
2022/09/27 01:37:56;;;;;;;9.05;5.60;;;;;;;;;;5021493;28;20018;-85
2022/09/27 01:40:32;;;;;;;6.10;5.35;;;;;;;;;;5005010;28;20034;-84
2022/09/27 01:42:57;;;;;;;5.88;5.28;;;;;;;;;;5001518;28;20121;-84
2022/09/27 01:45:45;;;;;;;5.90;5.30;;;;;;;;;;5010088;28;20122;-84
2022/09/27 01:48:24;;;;;;;6.70;5.68;;;;;;;;;;5016892;28;20106;-83
2022/09/27 01:51:07;;;;;;;7.57;6.20;;;;;;;;;;5015675;28;20117;-83
2022/09/27 01:53:35;;;;;;;9.65;5.70;;;;;;;;;;5005561;28;20025;-83
2022/09/27 01:56:02;;;;;;;7.70;6.20;;;;;;;;;;5011475;28;20034;-84
2022/09/27 01:58:51;;;;;;;6.00;5.40;;;;;;;;;;4998865;28;20112;-84
2022/09/27 02:01:17;;;;;;;6.50;4.82;;;;;;;;;;4997704;28;20045;-84
2022/09/27 02:03:44;;;;;;;6.15;4.97;;;;;;;;;;5006557;28;20022;-84
2022/09/27 02:06:15;;;;;;;5.13;4.68;;;;;;;;;;4998463;28;20026;-85
2022/09/27 02:08:42;;;;;;;5.60;4.93;;;;;;;;;;4998464;28;20124;-84
2022/09/27 02:11:09;;;;;;;5.00;4.50;;;;;;;;;;4998721;28;20022;-83
2022/09/27 02:13:57;;;;;;;7.40;4.57;;;;;;;;;;5009463;28;20052;-82
2022/09/27 02:16:45;;;;;;;5.53;3.60;;;;;;;;;;4998035;28;20043;-80
2022/09/27 02:19:28;;;;;;;4.28;3.92;;;;;;;;;;4994469;28;20156;-80
2022/09/27 02:21:53;;;;;;;4.30;3.90;;;;;;;;;;4994152;28;20077;-80
2022/09/27 02:24:21;;;;;;;4.80;4.40;;;;;;;;;;4993331;28;20026;-82
2022/09/27 02:26:50;;;;;;;5.00;4.18;;;;;;;;;;4995562;28;20030;-84
2022/09/27 02:29:17;;;;;;;4.30;3.90;;;;;;;;;;4994304;28;20424;-82
2022/09/27 02:31:42;;;;;;;3.63;3.00;;;;;;;;;;4995554;28;20073;-84
2022/09/27 02:34:11;;;;;;;4.15;3.47;;;;;;;;;;4995598;28;20061;-85
2022/09/27 02:36:37;;;;;;;3.78;3.45;;;;;;;;;;4997755;28;20084;-84
2022/09/27 02:39:02;;;;;;;4.10;3.42;;;;;;;;;;4996872;28;20500;-86
2022/09/27 02:41:27;;;;;;;3.92;3.17;;;;;;;;;;4997575;28;20460;-86
2022/09/27 02:43:54;;;;;;;3.00;2.80;;;;;;;;;;4998959;28;20031;-86
2022/09/27 02:46:22;;;;;;;3.88;3.47;;;;;;;;;;4999477;28;20599;-86
2022/09/27 02:48:50;;;;;;;3.25;3.05;;;;;;;;;;5007449;28;20557;-86
2022/09/27 02:51:22;;;;;;;3.97;3.67;;;;;;;;;;4995911;28;20022;-86
2022/09/27 02:53:47;;;;;;;3.75;3.38;;;;;;;;;;4997862;28;20021;-87
2022/09/27 02:56:24;;;;;;;3.03;2.75;;;;;;;;;;4999186;28;20505;-86
2022/09/27 02:59:06;;;;;;;3.72;2.97;;;;;;;;;;4994112;28;20393;-84
2022/09/27 03:01:52;;;;;;;3.70;3.20;;;;;;;;;;4995164;28;20029;-83
2022/09/27 03:04:27;;;;;;;3.50;3.20;;;;;;;;;;4985036;28;20034;-84
2022/09/27 03:06:53;;;;;;;3.13;2.85;;;;;;;;;;4995577;28;20519;-83
2022/09/27 03:09:20;;;;;;;3.42;3.13;;;;;;;;;;4997030;28;20038;-83
2022/09/27 03:11:46;;;;;;;3.95;2.65;;;;;;;;;;4998485;28;20025;-84
2022/09/27 03:14:11;;;;;;;3.05;2.78;;;;;;;;;;5001774;28;20151;-84
2022/09/27 03:16:36;;;;;;;2.83;2.63;;;;;;;;;;4995800;28;20053;-81
2022/09/27 03:19:01;;;;;;;3.22;3.03;;;;;;;;;;4997318;28;20121;-82
2022/09/27 03:21:28;;;;;;;2.65;2.40;;;;;;;;;;4982269;28;20440;-84
2022/09/27 03:23:53;;;;;;;3.33;3.13;;;;;;;;;;4997329;28;20704;-83
2022/09/27 03:26:18;;;;;;;3.65;3.35;;;;;;;;;;4996854;28;20084;-84
2022/09/27 03:28:43;;;;;;;2.95;2.75;;;;;;;;;;4995878;28;20129;-83
2022/09/27 03:31:09;;;;;;;3.95;3.13;;;;;;;;;;4996467;28;20104;-83
2022/09/27 03:33:34;;;;;;;3.80;3.25;;;;;;;;;;4996757;28;20021;-82
2022/09/27 03:35:59;;;;;;;3.28;3.00;;;;;;;;;;4997532;28;20049;-84
2022/09/27 03:38:24;;;;;;;3.00;2.80;;;;;;;;;;4997179;28;20034;-88
2022/09/27 03:40:49;;;;;;;3.10;2.85;;;;;;;;;;4999813;28;20033;-83
2022/09/27 03:43:15;;;;;;;3.35;3.05;;;;;;;;;;4996172;28;20026;-84
2022/09/27 03:45:41;;;;;;;4.68;3.65;;;;;;;;;;4999138;28;20038;-83
2022/09/27 03:48:07;;;;;;;3.22;3.00;;;;;;;;;;4998651;28;20069;-82
2022/09/27 03:50:32;;;;;;;3.00;2.78;;;;;;;;;;5002285;28;20052;-84
2022/09/27 03:52:57;;;;;;;5.30;3.45;;;;;;;;;;5000358;28;20025;-84
2022/09/27 03:55:23;;;;;;;3.50;3.20;;;;;;;;;;5002825;28;20042;-82
2022/09/27 03:57:48;;;;;;;3.35;3.08;;;;;;;;;;4999544;28;20030;-84
2022/09/27 04:00:14;;;;;;;3.53;3.20;;;;;;;;;;4998788;28;20022;-84
2022/09/27 04:02:40;;;;;;;3.22;2.97;;;;;;;;;;5005097;28;20109;-84
2022/09/27 04:05:05;;;;;;;3.65;3.25;;;;;;;;;;5009058;28;20033;-84
2022/09/27 04:07:31;;;;;;;3.50;3.20;;;;;;;;;;4987632;28;20037;-83
2022/09/27 04:09:56;;;;;;;3.70;3.40;;;;;;;;;;5001420;28;20760;-84
2022/09/27 04:12:21;;;;;;;5.18;4.30;;;;;;;;;;4999325;28;20037;-83
2022/09/27 04:14:47;;;;;;;5.80;4.35;;;;;;;;;;5001477;28;20197;-83
2022/09/27 04:17:12;;;;;;;6.10;4.35;;;;;;;;;;4998881;28;20061;-83
2022/09/27 04:19:38;;;;;;;5.55;5.05;;;;;;;;;;4999742;28;20030;-84
2022/09/27 04:22:04;;;;;;;4.88;4.03;;;;;;;;;;5000521;28;20025;-84
2022/09/27 04:24:31;;;;;;;6.07;4.22;;;;;;;;;;5009342;28;20037;-84
2022/09/27 04:26:57;;;;;;;5.00;3.75;;;;;;;;;;5015818;28;20037;-84
2022/09/27 04:29:22;;;;;;;5.25;3.60;;;;;;;;;;5024057;28;20534;-84
2022/09/27 04:31:47;;;;;;;4.18;3.78;;;;;;;;;;4998767;28;20030;-84
2022/09/27 04:34:12;;;;;;;3.38;3.08;;;;;;;;;;5002238;28;20026;-85
2022/09/27 04:36:38;;;;;;;4.47;3.47;;;;;;;;;;5002880;28;20029;-86
2022/09/27 04:39:04;;;;;;;3.50;3.20;;;;;;;;;;5002547;28;20034;-85
2022/09/27 04:41:30;;;;;;;3.65;3.33;;;;;;;;;;5005748;28;20018;-85
2022/09/27 04:43:55;;;;;;;4.90;4.43;;;;;;;;;;5002163;28;20034;-87
2022/09/27 04:46:21;;;;;;;4.82;3.65;;;;;;;;;;4996205;28;20026;-86
2022/09/27 04:48:47;;;;;;;4.93;3.72;;;;;;;;;;4994160;28;20037;-85
2022/09/27 04:51:15;;;;;;;9.85;4.25;;;;;;;;;;4996708;28;20304;-88
2022/09/27 04:53:40;;;;;;;3.90;3.50;;;;;;;;;;4995480;28;20022;-86
2022/09/27 04:56:06;;;;;;;5.50;3.33;;;;;;;;;;4996091;28;20034;-85
2022/09/27 04:58:32;;;;;;;5.18;4.05;;;;;;;;;;4991734;28;20388;-84
2022/09/27 05:00:58;;;;;;;3.80;3.50;;;;;;;;;;4995313;28;20093;-82
2022/09/27 05:03:23;;;;;;;3.65;3.35;;;;;;;;;;4995622;28;20030;-82
2022/09/27 05:05:49;;;;;;;3.63;3.33;;;;;;;;;;4999559;28;20308;-85
2022/09/27 05:08:14;;;;;;;3.35;3.05;;;;;;;;;;4997071;28;20121;-85
2022/09/27 05:10:39;;;;;;;3.78;3.47;;;;;;;;;;4983322;28;20038;-86
2022/09/27 05:13:05;;;;;;;3.63;3.33;;;;;;;;;;4996978;28;20022;-86
2022/09/27 05:15:30;;;;;;;3.53;3.22;;;;;;;;;;4997934;28;20026;-86
2022/09/27 05:17:57;;;;;;;3.85;3.45;;;;;;;;;;5000403;28;20377;-86
2022/09/27 05:20:24;;;;;;;8.23;5.63;;;;;;;;;;4994247;28;20034;-86
2022/09/27 05:22:49;;;;;;;5.13;4.30;;;;;;;;;;4995265;28;20087;-85
2022/09/27 05:25:14;;;;;;;5.07;4.47;;;;;;;;;;4996030;28;20026;-86
2022/09/27 05:27:40;;;;;;;5.88;3.40;;;;;;;;;;4995571;28;20029;-85
2022/09/27 05:30:06;;;;;;;4.53;4.13;;;;;;;;;;5003596;28;20454;-85
2022/09/27 05:32:32;;;;;;;4.35;3.95;;;;;;;;;;4996561;28;20029;-87
2022/09/27 05:34:57;;;;;;;4.93;4.50;;;;;;;;;;4997365;28;20027;-85
2022/09/27 05:37:22;;;;;;;4.03;3.60;;;;;;;;;;4999211;28;20109;-85
2022/09/27 05:39:48;;;;;;;4.43;3.40;;;;;;;;;;4997187;28;20057;-86
2022/09/27 05:42:14;;;;;;;3.60;3.30;;;;;;;;;;5011572;28;20061;-86
2022/09/27 05:44:39;;;;;;;4.07;3.67;;;;;;;;;;5016384;28;20024;-85
2022/09/27 05:47:05;;;;;;;4.68;3.65;;;;;;;;;;5002868;28;20093;-86
2022/09/27 05:49:30;;;;;;;4.97;3.88;;;;;;;;;;5001442;28;20038;-85
2022/09/27 05:51:56;;;;;;;5.38;3.83;;;;;;;;;;5010339;28;20609;-86
2022/09/27 05:54:21;;;;;;;5.50;4.20;;;;;;;;;;5015609;28;20024;-86
2022/09/27 05:56:47;;;;;;;3.42;3.13;;;;;;;;;;5010331;28;20041;-87
2022/09/27 05:59:12;;;;;;;4.05;3.75;;;;;;;;;;5005146;28;20493;-87
2022/09/27 06:01:37;;;;;;;4.97;4.05;;;;;;;;;;5005737;28;20667;-86
2022/09/27 06:04:03;;;;;;;5.85;4.07;;;;;;;;;;5012386;28;20399;-86
2022/09/27 06:06:28;;;;;;;5.97;4.30;;;;;;;;;;5006470;28;20089;-87
2022/09/27 06:08:54;;;;;;;5.20;4.00;;;;;;;;;;4997805;28;20061;-86
2022/09/27 06:11:19;;;;;;;5.13;4.45;;;;;;;;;;5001994;28;20054;-87
2022/09/27 06:13:44;;;;;;;4.60;3.65;;;;;;;;;;5002328;28;20496;-87
2022/09/27 06:16:10;;;;;;;4.47;4.05;;;;;;;;;;5001770;28;20118;-88
2022/09/27 06:18:36;;;;;;;8.07;4.28;;;;;;;;;;4997465;28;20070;-87
2022/09/27 06:21:02;;;;;;;6.65;5.03;;;;;;;;;;4998220;28;20022;-88
2022/09/27 06:23:27;;;;;;;6.13;3.85;;;;;;;;;;4999841;28;20090;-86
2022/09/27 06:25:53;;;;;;;4.80;4.00;;;;;;;;;;4998547;28;20086;-87
2022/09/27 06:28:19;;;;;;;4.78;3.10;;;;;;;;;;4998837;28;20118;-88
2022/09/27 06:30:45;;;;;;;7.05;4.03;;;;;;;;;;4987410;28;20121;-87
2022/09/27 06:33:12;;;;;;;4.38;3.60;;;;;;;;;;5008343;28;20025;-87
2022/09/27 06:35:37;;;;;;;9.90;3.97;;;;;;;;;;5002301;28;20117;-86
2022/09/27 06:38:03;;;;;;;7.25;4.53;;;;;;;;;;4995238;28;20061;-87
2022/09/27 06:40:29;;;;;;;5.18;4.65;;;;;;;;;;5018473;28;20057;-86
2022/09/27 06:43:00;;;;;;;5.28;4.70;;;;;;;;;;5018478;28;20038;-86
2022/09/27 06:45:26;;;;;;;5.15;4.63;;;;;;;;;;5004569;28;20029;-87
2022/09/27 06:47:52;;;;;;;5.15;4.63;;;;;;;;;;5000609;28;20026;-86
2022/09/27 06:50:17;;;;;;;5.32;4.50;;;;;;;;;;5009423;28;20052;-86
2022/09/27 06:52:47;;;;;;;11.38;5.07;;;;;;;;;;5006127;28;20306;-87
2022/09/27 06:55:12;;;;;;;6.55;5.13;;;;;;;;;;5010368;28;20033;-87
2022/09/27 07:00:27;;;;;;;5.47;4.72;;;;;;;;;;5001300;28;20048;-86
2022/09/27 07:02:53;;;;;;;6.50;5.32;;;;;;;;;;4999636;28;20029;-87
2022/09/27 07:05:19;;;;;;;5.80;5.20;;;;;;;;;;5003123;28;20026;-88
2022/09/27 07:07:46;;;;;;;8.70;6.07;;;;;;;;;;5004186;28;20019;-88
2022/09/27 07:10:12;;;;;;;7.13;5.20;;;;;;;;;;5006933;28;20065;-87
2022/09/27 07:12:37;;;;;;;7.75;5.05;;;;;;;;;;4991923;28;20054;-88
2022/09/27 07:15:03;;;;;;;7.80;5.13;;;;;;;;;;5001077;28;20032;-88
2022/09/27 07:17:29;;;;;;;5.90;4.47;;;;;;;;;;4998897;28;20050;-88
2022/09/27 07:19:54;;;;;;;8.63;4.65;;;;;;;;;;5007158;28;20038;-88
2022/09/27 07:22:19;;;;;;;7.18;4.50;;;;;;;;;;5002460;28;20037;-87
2022/09/27 07:24:45;;;;;;;5.57;5.07;;;;;;;;;;5010154;28;20264;-88
2022/09/27 07:27:10;;;;;;;5.70;4.25;;;;;;;;;;5007783;28;20030;-87
2022/09/27 07:29:36;;;;;;;5.30;4.88;;;;;;;;;;4985275;28;20531;-86
2022/09/27 07:32:01;;;;;;;6.07;4.78;;;;;;;;;;5002278;28;20750;-87
2022/09/27 07:34:26;;;;;;;6.57;5.15;;;;;;;;;;5001762;28;20526;-89
2022/09/27 07:36:53;;;;;;;5.30;4.57;;;;;;;;;;5000026;28;20104;-87
2022/09/27 07:39:20;;;;;;;5.60;4.30;;;;;;;;;;5002991;28;20029;-90
2022/09/27 07:41:46;;;;;;;5.18;4.68;;;;;;;;;;4989622;28;20026;-85
2022/09/27 07:44:11;;;;;;;6.47;5.38;;;;;;;;;;5004131;28;20457;-87
2022/09/27 07:46:37;;;;;;;16.92;8.50;;;;;;;;;;5007684;28;20037;-86
2022/09/27 07:49:02;;;;;;;10.15;7.85;;;;;;;;;;4983891;28;20118;-87
2022/09/27 07:51:28;;;;;;;9.73;6.30;;;;;;;;;;4985603;28;20026;-86
2022/09/27 07:53:53;;;;;;;8.80;5.53;;;;;;;;;;4997457;28;20034;-86
2022/09/27 07:56:18;;;;;;;6.15;5.57;;;;;;;;;;4995519;28;20030;-87
2022/09/27 07:58:43;;;;;;;6.97;6.28;;;;;;;;;;4992181;28;20033;-86
2022/09/27 08:01:09;;;;;;;12.35;6.68;;;;;;;;;;4995911;28;20026;-85
2022/09/27 08:03:35;;;;;;;8.73;7.85;;;;;;;;;;4986099;28;20034;-87
2022/09/27 08:06:03;;;;;;;9.20;8.27;;;;;;;;;;4998775;28;20088;-87
2022/09/27 08:08:28;;;;;;;13.13;9.35;;;;;;;;;;4995946;28;20026;-86
2022/09/27 08:10:54;;;;;;;37.20;19.33;;;;;;;;;;4996827;28;20027;-85
2022/09/27 08:13:19;;;;;;;42.92;25.38;;;;;;;;;;4987128;28;20078;-85
2022/09/27 08:15:45;;;;;;;31.83;21.48;;;;;;;;;;4998156;28;20671;-85
2022/09/27 08:18:10;;;;;;;24.45;17.17;;;;;;;;;;4994932;28;20038;-86
2022/09/27 08:20:35;;;;;;;27.10;18.13;;;;;;;;;;5000192;28;20068;-85
2022/09/27 08:23:03;;;;;;;24.10;16.00;;;;;;;;;;4997091;28;20365;-85
2022/09/27 08:25:29;;;;;;;12.20;10.32;;;;;;;;;;4994760;28;20480;-86
2022/09/27 08:27:58;;;;;;;7.93;6.72;;;;;;;;;;4994232;28;20507;-84
2022/09/27 08:30:24;;;;;;;10.02;6.47;;;;;;;;;;4998576;28;20392;-86
2022/09/27 08:32:53;;;;;;;7.63;5.90;;;;;;;;;;5001311;28;20034;-86
2022/09/27 08:35:18;;;;;;;3.47;3.10;;;;;;;;;;5000232;28;20022;-86
2022/09/27 08:37:51;;;;;;;3.60;3.10;;;;;;;;;;4996110;28;20439;-89
2022/09/27 08:40:16;;;;;;;3.13;2.83;;;;;;;;;;5006515;28;20023;-89
2022/09/27 08:42:45;;;;;;;3.85;2.13;;;;;;;;;;5003337;28;20029;-87
2022/09/27 08:45:16;;;;;;;2.53;2.08;;;;;;;;;;4998677;28;20027;-87
2022/09/27 08:47:43;;;;;;;2.50;2.30;;;;;;;;;;5004384;28;20393;-85
2022/09/27 08:50:08;;;;;;;5.95;2.53;;;;;;;;;;4997942;28;20037;-84
2022/09/27 08:52:46;;;;;;;3.83;2.40;;;;;;;;;;5008105;28;20055;-85
2022/09/27 08:55:30;;;;;;;1.73;1.63;;;;;;;;;;5018417;28;20022;-88
2022/09/27 08:57:56;;;;;;;1.70;1.60;;;;;;;;;;5016222;28;20018;-85
2022/09/27 09:00:22;;;;;;;2.97;2.25;;;;;;;;;;4987373;28;20118;-85
2022/09/27 09:02:47;;;;;;;1.92;1.83;;;;;;;;;;5007256;28;20109;-84
2022/09/27 09:05:26;;;;;;;3.35;2.25;;;;;;;;;;5001312;28;20033;-87
2022/09/27 09:08:01;;;;;;;3.92;2.70;;;;;;;;;;5002875;28;20040;-86
2022/09/27 09:13:25;;;;;;;3.22;2.15;;;;;;;;;;5007383;28;20030;-86
2022/09/27 09:16:02;;;;;;;1.80;1.70;;;;;;;;;;5009056;28;20058;-85
2022/09/27 09:18:46;;;;;;;1.83;1.73;;;;;;;;;;5017595;28;20089;-85
2022/09/27 09:21:23;;;;;;;2.85;2.10;;;;;;;;;;5006335;28;20026;-85
2022/09/27 09:24:05;;;;;;;2.75;1.80;;;;;;;;;;5002513;28;20481;-85
2022/09/27 09:26:30;;;;;;;2.45;1.48;;;;;;;;;;5003682;28;20061;-85
2022/09/27 09:28:58;;;;;;;3.30;1.95;;;;;;;;;;5009377;28;20555;-86
2022/09/27 09:31:40;;;;;;;3.88;1.95;;;;;;;;;;5015633;28;20026;-86
2022/09/27 09:34:17;;;;;;;3.97;1.77;;;;;;;;;;5010409;28;20029;-87
2022/09/27 09:36:52;;;;;;;2.22;2.03;;;;;;;;;;5008175;28;20022;-85
2022/09/27 09:39:24;;;;;;;2.40;1.48;;;;;;;;;;5008315;28;20072;-85
2022/09/27 09:41:49;;;;;;;2.38;1.40;;;;;;;;;;5008658;28;20061;-85
2022/09/27 09:44:19;;;;;;;1.77;1.38;;;;;;;;;;5013384;28;20018;-86
2022/09/27 09:46:46;;;;;;;1.80;1.70;;;;;;;;;;5019197;28;20025;-86
2022/09/27 09:49:11;;;;;;;4.13;2.88;;;;;;;;;;5018941;28;20038;-87
2022/09/27 09:51:39;;;;;;;5.68;3.10;;;;;;;;;;5024665;28;20037;-86
2022/09/27 09:54:18;;;;;;;3.72;2.85;;;;;;;;;;5020281;28;20050;-86
2022/09/27 09:57:10;;;;;;;2.97;2.05;;;;;;;;;;5011236;28;20030;-86
2022/09/27 09:59:41;;;;;;;2.88;1.77;;;;;;;;;;4978988;28;20113;-87
2022/09/27 10:02:16;;;;;;;2.42;1.65;;;;;;;;;;4999287;23;20055;-59
2022/09/27 10:04:41;;;;;;;1.75;1.65;;;;;;;;;;4951021;28;20448;-58
2022/09/27 10:07:08;;;;;;;1.60;1.50;;;;;;;;;;4949698;28;20089;-56
2022/09/27 10:09:33;;;;;;;1.58;1.48;;;;;;;;;;4955167;28;20047;-60
2022/09/27 10:11:58;;;;;;;3.05;2.45;;;;;;;;;;4953692;28;20560;-58
2022/09/27 10:14:25;;;;;;;2.67;2.30;;;;;;;;;;4949582;28;20033;-58
2022/09/27 10:16:56;;;;;;;1.95;1.77;;;;;;;;;;4950304;28;20314;-59
2022/09/27 10:19:25;;;;;;;2.58;2.35;;;;;;;;;;4949760;28;20388;-59
2022/09/27 10:21:51;;;;;;;1.60;1.50;;;;;;;;;;4950376;28;20053;-59
2022/09/27 10:24:18;;;;;;;1.35;1.30;;;;;;;;;;4949764;28;20027;-59
2022/09/27 10:26:44;;;;;;;1.85;1.48;;;;;;;;;;4951265;28;20058;-59
2022/09/27 10:29:35;;;;;;;2.20;1.40;;;;;;;;;;4948322;28;20109;-59
2022/09/27 10:32:03;;;;;;;2.75;1.77;;;;;;;;;;4950953;28;20046;-59
2022/09/27 10:34:39;;;;;;;1.48;1.38;;;;;;;;;;4954204;28;20024;-57
2022/09/27 10:37:16;;;;;;;1.90;1.80;;;;;;;;;;4948076;28;20702;-59
2022/09/27 10:39:41;;;;;;;1.73;1.60;;;;;;;;;;4949517;28;20121;-59
2022/09/27 10:42:25;;;;;;;1.90;1.42;;;;;;;;;;4948418;28;20053;-60
2022/09/27 10:44:51;;;;;;;2.00;1.60;;;;;;;;;;4948276;28;20031;-60
2022/09/27 10:47:21;;;;;;;1.77;1.40;;;;;;;;;;4952926;28;20385;-60
2022/09/27 10:49:47;;;;;;;1.65;1.55;;;;;;;;;;4947597;28;20233;-58
2022/09/27 10:52:12;;;;;;;1.63;1.52;;;;;;;;;;4951762;28;20621;-59
2022/09/27 10:54:39;;;;;;;2.08;1.48;;;;;;;;;;4952187;28;20023;-58
2022/09/27 10:57:24;;;;;;;1.42;1.40;;;;;;;;;;4948914;28;20550;-59
2022/09/27 10:59:52;;;;;;;3.08;2.33;;;;;;;;;;4948957;28;20449;-58
2022/09/27 11:02:26;;;;;;;1.52;1.42;;;;;;;;;;4947078;28;20059;-61
2022/09/27 11:05:03;;;;;;;1.52;1.45;;;;;;;;;;4952437;28;20116;-58
2022/09/27 11:07:28;;;;;;;1.20;1.20;;;;;;;;;;4952289;28;20145;-61
2022/09/27 11:09:54;;;;;;;1.48;1.42;;;;;;;;;;4950003;28;20069;-58
2022/09/27 11:12:21;;;;;;;1.60;1.60;;;;;;;;;;4947827;28;20691;-59
2022/09/27 11:15:06;;;;;;;2.00;1.90;;;;;;;;;;4952876;28;20031;-58
2022/09/27 11:17:38;;;;;;;2.83;2.72;;;;;;;;;;4956928;28;20061;-56
2022/09/27 11:20:13;;;;;;;2.25;2.08;;;;;;;;;;4955045;28;20244;-59
2022/09/27 11:22:53;;;;;;;2.40;1.98;;;;;;;;;;4954169;28;20051;-59
2022/09/27 11:25:27;;;;;;;2.00;1.90;;;;;;;;;;4954085;28;20022;-59
2022/09/27 11:28:11;;;;;;;1.90;1.80;;;;;;;;;;4953336;28;20035;-58
2022/09/27 11:30:54;;;;;;;1.80;1.70;;;;;;;;;;4952760;28;20165;-58
2022/09/27 11:33:20;;;;;;;2.22;2.13;;;;;;;;;;4951065;28;20023;-63
2022/09/27 11:35:48;;;;;;;2.25;2.13;;;;;;;;;;4961620;28;20549;-59
2022/09/27 11:38:52;;;;;;;1.50;1.40;;;;;;;;;;4951687;28;20058;-65
2022/09/27 11:41:20;;;;;;;2.38;1.98;;;;;;;;;;4923089;29;20082;-59
2022/09/27 11:43:54;;;;;;;2.10;1.73;;;;;;;;;;4922645;29;20079;-57
2022/09/27 11:46:29;;;;;;;2.78;2.60;;;;;;;;;;4923827;29;20043;-59
2022/09/27 11:49:12;;;;;;;2.30;2.10;;;;;;;;;;4922925;29;20321;-59
2022/09/27 11:51:40;;;;;;;4.13;3.72;;;;;;;;;;4923178;29;20066;-58
2022/09/27 11:54:25;;;;;;;3.10;2.75;;;;;;;;;;4921082;29;20020;-59
2022/09/27 11:57:09;;;;;;;2.38;2.17;;;;;;;;;;4891150;29;20056;-59
2022/09/27 11:59:56;;;;;;;1.98;1.88;;;;;;;;;;4917144;29;20061;-58
2022/09/27 12:02:21;;;;;;;2.38;2.25;;;;;;;;;;4919308;29;20055;-58
2022/09/27 12:04:52;;;;;;;1.90;1.60;;;;;;;;;;4918307;29;20621;-61
2022/09/27 12:07:40;;;;;;;1.90;1.73;;;;;;;;;;4917668;29;20059;-60
2022/09/27 12:10:12;;;;;;;1.55;1.27;;;;;;;;;;4921918;29;20045;-61
2022/09/27 12:12:44;;;;;;;2.03;1.83;;;;;;;;;;4937783;28;20575;-66
2022/09/27 12:15:14;;;;;;;1.63;1.52;;;;;;;;;;4951543;28;21045;-65
2022/09/27 12:17:41;;;;;;;1.73;1.38;;;;;;;;;;4952751;28;20027;-64
2022/09/27 12:20:15;;;;;;;1.65;1.55;;;;;;;;;;4953326;28;20019;-66
2022/09/27 12:23:06;;;;;;;1.27;1.27;;;;;;;;;;4953076;28;20477;-65
2022/09/27 12:25:36;;;;;;;1.67;1.33;;;;;;;;;;4943811;28;20091;-60
2022/09/27 12:28:01;;;;;;;1.70;1.60;;;;;;;;;;4946688;28;20034;-61
2022/09/27 12:30:28;;;;;;;1.70;1.60;;;;;;;;;;4951867;28;20045;-62
2022/09/27 12:33:03;;;;;;;1.38;1.27;;;;;;;;;;4952215;28;20047;-58
2022/09/27 12:35:31;;;;;;;2.22;1.70;;;;;;;;;;4952543;28;20059;-60
2022/09/27 12:38:02;;;;;;;1.52;1.42;;;;;;;;;;4952911;28;20062;-61
2022/09/27 12:40:30;;;;;;;1.30;1.30;;;;;;;;;;4952217;28;20034;-60
2022/09/27 12:43:05;;;;;;;1.35;1.30;;;;;;;;;;4952697;28;20055;-60
2022/09/27 12:45:40;;;;;;;1.00;1.00;;;;;;;;;;4950819;28;20051;-61
2022/09/27 12:48:31;;;;;;;1.35;1.25;;;;;;;;;;4946118;28;20037;-63
2022/09/27 12:51:13;;;;;;;3.25;2.78;;;;;;;;;;4908965;29;20568;-59
2022/09/27 12:53:44;;;;;;;2.28;1.80;;;;;;;;;;4911495;29;20112;-59
2022/09/27 12:56:19;;;;;;;1.30;1.30;;;;;;;;;;4911549;29;20622;-60
2022/09/27 12:58:56;;;;;;;1.17;1.17;;;;;;;;;;4911296;29;20032;-61
2022/09/27 13:01:24;;;;;;;1.55;1.45;;;;;;;;;;4912145;29;20040;-61
2022/09/27 13:04:17;;;;;;;1.30;1.20;;;;;;;;;;4910230;29;20174;-61
2022/09/27 13:07:03;;;;;;;1.30;1.20;;;;;;;;;;4910895;29;20036;-60
2022/09/27 13:09:29;;;;;;;1.30;1.25;;;;;;;;;;4909626;29;20704;-60
2022/09/27 13:11:55;;;;;;;1.15;1.15;;;;;;;;;;4913452;29;20042;-61
2022/09/27 13:14:22;;;;;;;1.10;1.10;;;;;;;;;;4916479;29;20040;-61
2022/09/27 13:16:48;;;;;;;1.38;1.27;;;;;;;;;;4915547;29;20050;-60
2022/09/27 13:19:32;;;;;;;1.30;1.20;;;;;;;;;;4917810;29;20050;-61
2022/09/27 13:21:58;;;;;;;1.20;1.20;;;;;;;;;;4922260;29;20067;-65
2022/09/27 13:24:29;;;;;;;1.77;1.50;;;;;;;;;;4917336;29;20044;-60
2022/09/27 13:26:55;;;;;;;7.15;3.80;;;;;;;;;;4920655;28;20020;-60
2022/09/27 13:29:22;;;;;;;9.75;4.00;;;;;;;;;;4955764;28;20030;-58
2022/09/27 13:31:53;;;;;;;6.97;3.40;;;;;;;;;;4955787;28;20121;-59
2022/09/27 13:34:40;;;;;;;4.57;2.78;;;;;;;;;;4957134;28;20026;-60
2022/09/27 13:37:24;;;;;;;4.00;2.40;;;;;;;;;;4957085;28;20027;-59
2022/09/27 13:39:50;;;;;;;1.67;1.58;;;;;;;;;;4956056;28;20110;-59
2022/09/27 13:42:28;;;;;;;1.38;1.27;;;;;;;;;;4956968;28;20102;-59
2022/09/27 13:45:11;;;;;;;1.50;1.40;;;;;;;;;;4955413;28;20135;-61
2022/09/27 13:47:39;;;;;;;4.18;2.30;;;;;;;;;;4969911;28;20102;-59
2022/09/27 13:50:10;;;;;;;4.68;1.98;;;;;;;;;;4959923;28;20038;-59
2022/09/27 13:52:36;;;;;;;4.90;2.83;;;;;;;;;;4950843;28;20031;-61
2022/09/27 13:55:03;;;;;;;2.78;1.80;;;;;;;;;;4953741;28;20027;-58
2022/09/27 13:57:47;;;;;;;3.28;1.85;;;;;;;;;;4955115;28;20082;-59
2022/09/27 14:00:16;;;;;;;3.33;2.53;;;;;;;;;;4955624;28;20435;-59
2022/09/27 14:02:50;;;;;;;3.67;2.10;;;;;;;;;;4956888;28;20058;-57
2022/09/27 14:05:19;;;;;;;2.28;1.80;;;;;;;;;;4956597;28;20556;-59
2022/09/27 14:07:45;;;;;;;3.03;2.15;;;;;;;;;;4954350;28;20030;-58
2022/09/27 14:10:13;;;;;;;1.77;1.67;;;;;;;;;;4953781;28;20494;-60
2022/09/27 14:12:39;;;;;;;1.65;1.33;;;;;;;;;;4950169;28;20469;-59
2022/09/27 14:15:06;;;;;;;2.05;1.42;;;;;;;;;;4952745;28;20027;-57
2022/09/27 14:17:31;;;;;;;2.30;1.77;;;;;;;;;;4957203;28;20027;-58
2022/09/27 14:19:57;;;;;;;1.20;1.20;;;;;;;;;;4957509;28;20038;-60
2022/09/27 14:22:22;;;;;;;3.40;1.10;;;;;;;;;;4950081;28;20035;-59
2022/09/27 14:24:49;;;;;;;1.63;1.10;;;;;;;;;;4951324;28;20027;-60
2022/09/27 14:27:16;;;;;;;1.70;1.45;;;;;;;;;;4955890;28;20054;-60
2022/09/27 14:29:41;;;;;;;1.10;1.10;;;;;;;;;;4955826;28;20027;-59
2022/09/27 14:32:12;;;;;;;0.98;0.98;;;;;;;;;;4954794;28;20038;-60
2022/09/27 14:34:38;;;;;;;0.80;0.80;;;;;;;;;;4951053;28;20023;-58
2022/09/27 14:40:05;;;;;;;1.30;1.15;;;;;;;;;;4957299;28;20079;-58
2022/09/27 14:42:35;;;;;;;0.85;0.85;;;;;;;;;;4955519;28;20085;-59
2022/09/27 14:45:02;;;;;;;1.10;1.10;;;;;;;;;;4954679;28;20054;-59
2022/09/27 14:47:28;;;;;;;0.90;0.90;;;;;;;;;;4954845;28;20131;-60
2022/09/27 14:49:58;;;;;;;0.90;0.90;;;;;;;;;;4969607;28;20401;-60
2022/09/27 14:52:30;;;;;;;1.05;1.05;;;;;;;;;;4954891;28;20046;-60
2022/09/27 14:54:59;;;;;;;1.00;1.00;;;;;;;;;;4951627;28;20022;-59
2022/09/27 14:57:27;;;;;;;0.80;0.80;;;;;;;;;;4970049;28;20063;-58
2022/09/27 14:59:52;;;;;;;4.90;3.40;;;;;;;;;;4954545;28;20028;-61
2022/09/27 15:02:19;;;;;;;2.47;2.28;;;;;;;;;;4954755;28;20055;-58
2022/09/27 15:04:46;;;;;;;1.40;1.30;;;;;;;;;;4953377;28;20019;-59
2022/09/27 15:07:11;;;;;;;0.98;0.98;;;;;;;;;;4955136;28;20059;-59